sensor_id;sensor_type;location;lat;lon;timestamp;temperature;humidity
33105;DHT22;19476;51.448;6.674;2022-10-16T00:01:19;18.80;62.50
33105;DHT22;19476;51.448;6.674;2022-10-16T00:03:46;18.80;62.60
33105;DHT22;19476;51.448;6.674;2022-10-16T00:06:13;18.80;62.50
33105;DHT22;19476;51.448;6.674;2022-10-16T00:08:40;18.80;62.50
33105;DHT22;19476;51.448;6.674;2022-10-16T00:11:12;18.80;62.50
33105;DHT22;19476;51.448;6.674;2022-10-16T00:13:40;18.80;62.50
33105;DHT22;19476;51.448;6.674;2022-10-16T00:16:07;18.80;62.50
33105;DHT22;19476;51.448;6.674;2022-10-16T00:18:34;18.70;62.50
33105;DHT22;19476;51.448;6.674;2022-10-16T00:21:11;18.70;62.50
33105;DHT22;19476;51.448;6.674;2022-10-16T00:23:37;18.70;62.50
33105;DHT22;19476;51.448;6.674;2022-10-16T00:26:09;18.70;62.50
33105;DHT22;19476;51.448;6.674;2022-10-16T00:28:35;18.70;62.60
33105;DHT22;19476;51.448;6.674;2022-10-16T00:31:09;18.70;62.60
33105;DHT22;19476;51.448;6.674;2022-10-16T00:33:37;18.60;62.70
33105;DHT22;19476;51.448;6.674;2022-10-16T00:36:04;18.60;62.60
33105;DHT22;19476;51.448;6.674;2022-10-16T00:38:31;18.60;62.70
33105;DHT22;19476;51.448;6.674;2022-10-16T00:40:57;18.60;62.70
33105;DHT22;19476;51.448;6.674;2022-10-16T00:43:46;18.60;62.70
33105;DHT22;19476;51.448;6.674;2022-10-16T00:46:37;18.60;63.10
33105;DHT22;19476;51.448;6.674;2022-10-16T00:49:17;18.60;63.00
33105;DHT22;19476;51.448;6.674;2022-10-16T00:51:51;18.60;63.00
33105;DHT22;19476;51.448;6.674;2022-10-16T00:54:24;18.60;63.00
33105;DHT22;19476;51.448;6.674;2022-10-16T00:56:50;18.60;62.90
33105;DHT22;19476;51.448;6.674;2022-10-16T00:59:24;18.50;62.90
33105;DHT22;19476;51.448;6.674;2022-10-16T01:01:52;18.50;63.00
33105;DHT22;19476;51.448;6.674;2022-10-16T01:04:19;18.50;62.90
33105;DHT22;19476;51.448;6.674;2022-10-16T01:09:57;18.60;63.10
33105;DHT22;19476;51.448;6.674;2022-10-16T01:12:51;18.50;62.90
33105;DHT22;19476;51.448;6.674;2022-10-16T01:17:57;18.50;62.70
33105;DHT22;19476;51.448;6.674;2022-10-16T01:20:47;18.50;62.90
33105;DHT22;19476;51.448;6.674;2022-10-16T01:28:58;18.50;62.60
33105;DHT22;19476;51.448;6.674;2022-10-16T01:31:30;18.60;62.70
33105;DHT22;19476;51.448;6.674;2022-10-16T01:36:38;18.50;62.70
33105;DHT22;19476;51.448;6.674;2022-10-16T01:39:07;18.50;62.70
33105;DHT22;19476;51.448;6.674;2022-10-16T01:41:39;18.50;62.80
33105;DHT22;19476;51.448;6.674;2022-10-16T01:46:37;18.40;62.80
33105;DHT22;19476;51.448;6.674;2022-10-16T01:49:06;18.50;62.90
33105;DHT22;19476;51.448;6.674;2022-10-16T01:51:35;18.50;62.90
33105;DHT22;19476;51.448;6.674;2022-10-16T01:54:02;18.50;62.90
33105;DHT22;19476;51.448;6.674;2022-10-16T01:56:30;18.50;62.90
33105;DHT22;19476;51.448;6.674;2022-10-16T01:59:09;18.50;62.90
33105;DHT22;19476;51.448;6.674;2022-10-16T02:01:37;18.50;62.90
33105;DHT22;19476;51.448;6.674;2022-10-16T02:04:29;18.50;62.80
33105;DHT22;19476;51.448;6.674;2022-10-16T02:06:54;18.50;62.80
33105;DHT22;19476;51.448;6.674;2022-10-16T02:09:20;18.50;62.60
33105;DHT22;19476;51.448;6.674;2022-10-16T02:11:45;18.50;62.50
33105;DHT22;19476;51.448;6.674;2022-10-16T02:14:12;18.50;62.50
33105;DHT22;19476;51.448;6.674;2022-10-16T02:16:42;18.50;62.50
33105;DHT22;19476;51.448;6.674;2022-10-16T02:19:08;18.50;62.60
33105;DHT22;19476;51.448;6.674;2022-10-16T02:21:44;18.40;62.50
33105;DHT22;19476;51.448;6.674;2022-10-16T02:27:33;18.40;62.60
33105;DHT22;19476;51.448;6.674;2022-10-16T02:29:42;18.40;62.70
33105;DHT22;19476;51.448;6.674;2022-10-16T02:32:19;18.40;62.60
33105;DHT22;19476;51.448;6.674;2022-10-16T02:34:48;18.40;62.70
33105;DHT22;19476;51.448;6.674;2022-10-16T02:37:16;18.40;62.70
33105;DHT22;19476;51.448;6.674;2022-10-16T02:39:43;18.40;62.70
33105;DHT22;19476;51.448;6.674;2022-10-16T02:42:13;18.30;62.60
33105;DHT22;19476;51.448;6.674;2022-10-16T02:44:39;18.40;62.70
33105;DHT22;19476;51.448;6.674;2022-10-16T02:47:05;18.30;62.60
33105;DHT22;19476;51.448;6.674;2022-10-16T02:49:31;18.40;62.70
33105;DHT22;19476;51.448;6.674;2022-10-16T02:51:57;18.30;62.60
33105;DHT22;19476;51.448;6.674;2022-10-16T02:54:23;18.30;62.50
33105;DHT22;19476;51.448;6.674;2022-10-16T02:56:49;18.30;62.50
33105;DHT22;19476;51.448;6.674;2022-10-16T02:59:15;18.30;62.50
33105;DHT22;19476;51.448;6.674;2022-10-16T03:01:41;18.30;62.50
33105;DHT22;19476;51.448;6.674;2022-10-16T03:04:07;18.30;62.40
33105;DHT22;19476;51.448;6.674;2022-10-16T03:06:33;18.30;62.40
33105;DHT22;19476;51.448;6.674;2022-10-16T03:08:58;18.30;62.40
33105;DHT22;19476;51.448;6.674;2022-10-16T03:11:24;18.30;62.40
33105;DHT22;19476;51.448;6.674;2022-10-16T03:13:50;18.30;62.40
33105;DHT22;19476;51.448;6.674;2022-10-16T03:16:16;18.30;62.40
33105;DHT22;19476;51.448;6.674;2022-10-16T03:18:41;18.30;62.30
33105;DHT22;19476;51.448;6.674;2022-10-16T03:21:07;18.30;62.30
33105;DHT22;19476;51.448;6.674;2022-10-16T03:23:33;18.30;62.30
33105;DHT22;19476;51.448;6.674;2022-10-16T03:25:59;18.30;62.20
33105;DHT22;19476;51.448;6.674;2022-10-16T03:28:25;18.30;62.10
33105;DHT22;19476;51.448;6.674;2022-10-16T03:30:50;18.30;62.00
33105;DHT22;19476;51.448;6.674;2022-10-16T03:33:16;18.30;61.90
33105;DHT22;19476;51.448;6.674;2022-10-16T03:35:42;18.30;61.80
33105;DHT22;19476;51.448;6.674;2022-10-16T03:38:08;18.30;61.80
33105;DHT22;19476;51.448;6.674;2022-10-16T03:40:34;18.30;61.90
33105;DHT22;19476;51.448;6.674;2022-10-16T03:43:00;18.30;61.80
33105;DHT22;19476;51.448;6.674;2022-10-16T03:45:25;18.30;61.70
33105;DHT22;19476;51.448;6.674;2022-10-16T03:47:52;18.30;61.60
33105;DHT22;19476;51.448;6.674;2022-10-16T03:50:18;18.20;61.50
33105;DHT22;19476;51.448;6.674;2022-10-16T03:52:44;18.30;61.50
33105;DHT22;19476;51.448;6.674;2022-10-16T03:55:10;18.30;61.60
33105;DHT22;19476;51.448;6.674;2022-10-16T03:57:36;18.20;61.60
33105;DHT22;19476;51.448;6.674;2022-10-16T04:00:02;18.20;61.50
33105;DHT22;19476;51.448;6.674;2022-10-16T04:02:28;18.30;61.60
33105;DHT22;19476;51.448;6.674;2022-10-16T04:04:53;18.20;61.40
33105;DHT22;19476;51.448;6.674;2022-10-16T04:07:19;18.20;61.30
33105;DHT22;19476;51.448;6.674;2022-10-16T04:09:45;18.30;61.40
33105;DHT22;19476;51.448;6.674;2022-10-16T04:12:11;18.20;61.30
33105;DHT22;19476;51.448;6.674;2022-10-16T04:14:37;18.20;61.30
33105;DHT22;19476;51.448;6.674;2022-10-16T04:17:03;18.20;61.30
33105;DHT22;19476;51.448;6.674;2022-10-16T04:19:28;18.10;61.20
33105;DHT22;19476;51.448;6.674;2022-10-16T04:21:55;18.20;61.30
33105;DHT22;19476;51.448;6.674;2022-10-16T04:24:21;18.20;61.20
33105;DHT22;19476;51.448;6.674;2022-10-16T04:26:47;18.20;61.80
33105;DHT22;19476;51.448;6.674;2022-10-16T04:29:13;18.20;61.20
33105;DHT22;19476;51.448;6.674;2022-10-16T04:31:39;18.20;61.20
33105;DHT22;19476;51.448;6.674;2022-10-16T04:34:04;18.20;61.20
33105;DHT22;19476;51.448;6.674;2022-10-16T04:36:30;18.20;61.10
33105;DHT22;19476;51.448;6.674;2022-10-16T04:38:56;18.20;61.10
33105;DHT22;19476;51.448;6.674;2022-10-16T04:41:22;18.20;61.10
33105;DHT22;19476;51.448;6.674;2022-10-16T04:43:48;18.20;61.10
33105;DHT22;19476;51.448;6.674;2022-10-16T04:46:13;18.20;61.10
33105;DHT22;19476;51.448;6.674;2022-10-16T04:48:39;18.20;61.20
33105;DHT22;19476;51.448;6.674;2022-10-16T04:51:05;18.10;61.20
33105;DHT22;19476;51.448;6.674;2022-10-16T04:53:31;18.10;61.20
33105;DHT22;19476;51.448;6.674;2022-10-16T04:55:56;18.10;61.20
33105;DHT22;19476;51.448;6.674;2022-10-16T04:58:23;18.10;61.10
33105;DHT22;19476;51.448;6.674;2022-10-16T05:00:49;18.10;61.20
33105;DHT22;19476;51.448;6.674;2022-10-16T05:03:14;18.10;61.30
33105;DHT22;19476;51.448;6.674;2022-10-16T05:05:44;18.10;61.30
33105;DHT22;19476;51.448;6.674;2022-10-16T05:08:11;18.10;61.40
33105;DHT22;19476;51.448;6.674;2022-10-16T05:10:37;18.10;61.50
33105;DHT22;19476;51.448;6.674;2022-10-16T05:13:03;18.10;61.30
33105;DHT22;19476;51.448;6.674;2022-10-16T05:15:29;18.10;61.30
33105;DHT22;19476;51.448;6.674;2022-10-16T05:17:55;18.10;61.30
33105;DHT22;19476;51.448;6.674;2022-10-16T05:20:22;18.10;61.40
33105;DHT22;19476;51.448;6.674;2022-10-16T05:22:48;17.90;61.40
33105;DHT22;19476;51.448;6.674;2022-10-16T05:25:14;18.10;61.40
33105;DHT22;19476;51.448;6.674;2022-10-16T05:27:40;18.10;61.40
33105;DHT22;19476;51.448;6.674;2022-10-16T05:30:06;18.10;61.50
33105;DHT22;19476;51.448;6.674;2022-10-16T05:32:33;18.10;61.60
33105;DHT22;19476;51.448;6.674;2022-10-16T05:34:59;18.10;61.60
33105;DHT22;19476;51.448;6.674;2022-10-16T05:37:27;18.00;61.60
33105;DHT22;19476;51.448;6.674;2022-10-16T05:39:52;18.00;61.70
33105;DHT22;19476;51.448;6.674;2022-10-16T05:42:18;18.10;61.70
33105;DHT22;19476;51.448;6.674;2022-10-16T05:44:45;18.00;61.70
33105;DHT22;19476;51.448;6.674;2022-10-16T05:47:12;18.00;61.80
33105;DHT22;19476;51.448;6.674;2022-10-16T05:49:39;18.00;61.80
33105;DHT22;19476;51.448;6.674;2022-10-16T05:52:06;18.00;61.80
33105;DHT22;19476;51.448;6.674;2022-10-16T05:54:31;18.00;61.90
33105;DHT22;19476;51.448;6.674;2022-10-16T05:56:57;18.00;61.90
33105;DHT22;19476;51.448;6.674;2022-10-16T05:59:23;18.00;62.00
33105;DHT22;19476;51.448;6.674;2022-10-16T06:01:49;18.00;62.00
33105;DHT22;19476;51.448;6.674;2022-10-16T06:04:15;18.00;62.10
33105;DHT22;19476;51.448;6.674;2022-10-16T06:06:41;18.00;62.10
33105;DHT22;19476;51.448;6.674;2022-10-16T06:09:06;17.90;62.10
33105;DHT22;19476;51.448;6.674;2022-10-16T06:11:33;18.00;62.20
33105;DHT22;19476;51.448;6.674;2022-10-16T06:14:00;18.00;62.20
33105;DHT22;19476;51.448;6.674;2022-10-16T06:16:28;17.90;62.30
33105;DHT22;19476;51.448;6.674;2022-10-16T06:18:55;18.00;62.40
33105;DHT22;19476;51.448;6.674;2022-10-16T06:21:23;18.00;62.40
33105;DHT22;19476;51.448;6.674;2022-10-16T06:23:56;18.00;62.50
33105;DHT22;19476;51.448;6.674;2022-10-16T06:26:25;18.00;62.50
33105;DHT22;19476;51.448;6.674;2022-10-16T06:28:53;18.00;62.50
33105;DHT22;19476;51.448;6.674;2022-10-16T06:31:19;18.00;62.50
33105;DHT22;19476;51.448;6.674;2022-10-16T06:33:45;18.00;62.50
33105;DHT22;19476;51.448;6.674;2022-10-16T06:36:14;18.00;62.50
33105;DHT22;19476;51.448;6.674;2022-10-16T06:38:41;18.00;62.60
33105;DHT22;19476;51.448;6.674;2022-10-16T06:41:09;18.00;62.60
33105;DHT22;19476;51.448;6.674;2022-10-16T06:43:36;18.00;62.60
33105;DHT22;19476;51.448;6.674;2022-10-16T06:46:05;18.10;62.60
33105;DHT22;19476;51.448;6.674;2022-10-16T06:48:33;18.10;62.60
33105;DHT22;19476;51.448;6.674;2022-10-16T06:51:00;18.10;62.60
33105;DHT22;19476;51.448;6.674;2022-10-16T06:53:27;18.10;62.60
33105;DHT22;19476;51.448;6.674;2022-10-16T06:55:53;18.10;62.60
33105;DHT22;19476;51.448;6.674;2022-10-16T06:58:19;18.10;62.70
33105;DHT22;19476;51.448;6.674;2022-10-16T07:00:45;18.10;62.40
33105;DHT22;19476;51.448;6.674;2022-10-16T07:18:38;18.30;63.00
33105;DHT22;19476;51.448;6.674;2022-10-16T07:21:10;18.30;62.40
33105;DHT22;19476;51.448;6.674;2022-10-16T07:23:36;18.40;62.90
33105;DHT22;19476;51.448;6.674;2022-10-16T07:26:03;18.40;62.00
33105;DHT22;19476;51.448;6.674;2022-10-16T07:28:29;18.40;62.10
33105;DHT22;19476;51.448;6.674;2022-10-16T07:30:54;18.40;62.10
33105;DHT22;19476;51.448;6.674;2022-10-16T07:33:21;18.50;62.10
33105;DHT22;19476;51.448;6.674;2022-10-16T07:35:54;18.40;62.20
33105;DHT22;19476;51.448;6.674;2022-10-16T07:38:21;18.50;62.30
33105;DHT22;19476;51.448;6.674;2022-10-16T07:40:47;18.50;62.40
33105;DHT22;19476;51.448;6.674;2022-10-16T07:43:13;18.50;62.50
33105;DHT22;19476;51.448;6.674;2022-10-16T07:45:49;18.50;62.50
33105;DHT22;19476;51.448;6.674;2022-10-16T07:48:17;18.50;62.40
33105;DHT22;19476;51.448;6.674;2022-10-16T07:50:44;18.50;62.50
33105;DHT22;19476;51.448;6.674;2022-10-16T07:53:11;18.60;62.60
33105;DHT22;19476;51.448;6.674;2022-10-16T07:55:37;18.60;62.60
33105;DHT22;19476;51.448;6.674;2022-10-16T07:58:04;18.60;62.60
33105;DHT22;19476;51.448;6.674;2022-10-16T08:00:30;18.70;62.60
33105;DHT22;19476;51.448;6.674;2022-10-16T08:02:57;18.70;62.50
33105;DHT22;19476;51.448;6.674;2022-10-16T08:05:30;18.70;62.50
33105;DHT22;19476;51.448;6.674;2022-10-16T08:07:56;19.00;62.50
33105;DHT22;19476;51.448;6.674;2022-10-16T08:10:25;18.80;62.40
33105;DHT22;19476;51.448;6.674;2022-10-16T08:12:51;18.80;62.40
33105;DHT22;19476;51.448;6.674;2022-10-16T08:15:17;18.90;62.40
33105;DHT22;19476;51.448;6.674;2022-10-16T08:17:43;18.90;62.20
33105;DHT22;19476;51.448;6.674;2022-10-16T08:20:10;19.00;62.10
33105;DHT22;19476;51.448;6.674;2022-10-16T08:22:35;19.10;62.00
33105;DHT22;19476;51.448;6.674;2022-10-16T08:25:01;19.10;61.90
33105;DHT22;19476;51.448;6.674;2022-10-16T08:27:33;19.10;61.90
33105;DHT22;19476;51.448;6.674;2022-10-16T08:29:59;19.20;61.80
33105;DHT22;19476;51.448;6.674;2022-10-16T08:32:25;19.20;61.70
33105;DHT22;19476;51.448;6.674;2022-10-16T08:34:51;19.30;61.70
33105;DHT22;19476;51.448;6.674;2022-10-16T08:37:17;19.30;61.40
33105;DHT22;19476;51.448;6.674;2022-10-16T08:39:43;19.40;61.40
33105;DHT22;19476;51.448;6.674;2022-10-16T08:45:06;19.50;60.80
33105;DHT22;19476;51.448;6.674;2022-10-16T08:47:43;19.50;61.00
33105;DHT22;19476;51.448;6.674;2022-10-16T08:50:27;19.60;61.00
33105;DHT22;19476;51.448;6.674;2022-10-16T08:52:54;19.70;60.60
33105;DHT22;19476;51.448;6.674;2022-10-16T08:55:43;19.70;60.50
33105;DHT22;19476;51.448;6.674;2022-10-16T08:58:16;19.80;59.70
33105;DHT22;19476;51.448;6.674;2022-10-16T09:00:45;19.80;59.90
33105;DHT22;19476;51.448;6.674;2022-10-16T09:08:44;19.90;59.90
33105;DHT22;19476;51.448;6.674;2022-10-16T09:14:04;20.00;59.50
33105;DHT22;19476;51.448;6.674;2022-10-16T09:16:38;20.10;59.20
33105;DHT22;19476;51.448;6.674;2022-10-16T09:19:23;20.10;59.20
33105;DHT22;19476;51.448;6.674;2022-10-16T09:21:51;20.10;59.20
33105;DHT22;19476;51.448;6.674;2022-10-16T09:24:21;20.20;59.10
33105;DHT22;19476;51.448;6.674;2022-10-16T09:26:47;20.20;59.00
33105;DHT22;19476;51.448;6.674;2022-10-16T09:29:15;20.30;59.10
33105;DHT22;19476;51.448;6.674;2022-10-16T09:31:41;20.40;58.90
33105;DHT22;19476;51.448;6.674;2022-10-16T09:36:57;20.50;57.60
33105;DHT22;19476;51.448;6.674;2022-10-16T09:39:24;20.60;58.10
33105;DHT22;19476;51.448;6.674;2022-10-16T09:41:51;20.60;58.10
33105;DHT22;19476;51.448;6.674;2022-10-16T09:44:30;20.60;57.70
33105;DHT22;19476;51.448;6.674;2022-10-16T09:47:12;20.70;57.10
33105;DHT22;19476;51.448;6.674;2022-10-16T09:49:38;20.70;57.00
33105;DHT22;19476;51.448;6.674;2022-10-16T09:52:13;20.80;56.90
33105;DHT22;19476;51.448;6.674;2022-10-16T09:54:50;20.90;56.40
33105;DHT22;19476;51.448;6.674;2022-10-16T09:57:16;20.90;56.40
33105;DHT22;19476;51.448;6.674;2022-10-16T09:59:49;20.90;56.80
33105;DHT22;19476;51.448;6.674;2022-10-16T10:02:17;21.00;55.80
33105;DHT22;19476;51.448;6.674;2022-10-16T10:04:52;21.00;56.30
33105;DHT22;19476;51.448;6.674;2022-10-16T10:07:31;21.10;55.40
33105;DHT22;19476;51.448;6.674;2022-10-16T10:10:02;21.10;55.40
33105;DHT22;19476;51.448;6.674;2022-10-16T10:12:30;21.20;55.60
33105;DHT22;19476;51.448;6.674;2022-10-16T10:15:12;21.20;55.40
33105;DHT22;19476;51.448;6.674;2022-10-16T10:17:53;21.20;55.00
33105;DHT22;19476;51.448;6.674;2022-10-16T10:20:35;21.30;54.50
33105;DHT22;19476;51.448;6.674;2022-10-16T10:23:24;21.40;54.90
33105;DHT22;19476;51.448;6.674;2022-10-16T10:26:12;21.40;54.20
33105;DHT22;19476;51.448;6.674;2022-10-16T10:39:48;21.70;53.40
33105;DHT22;19476;51.448;6.674;2022-10-16T10:45:18;21.80;54.00
33105;DHT22;19476;51.448;6.674;2022-10-16T10:51:02;21.90;52.80
33105;DHT22;19476;51.448;6.674;2022-10-16T10:56:45;22.00;51.80
33105;DHT22;19476;51.448;6.674;2022-10-16T11:02:24;22.10;52.20
33105;DHT22;19476;51.448;6.674;2022-10-16T11:05:23;22.20;51.90
33105;DHT22;19476;51.448;6.674;2022-10-16T11:08:00;22.30;51.90
33105;DHT22;19476;51.448;6.674;2022-10-16T11:10:33;22.30;51.50
33105;DHT22;19476;51.448;6.674;2022-10-16T11:16:04;22.50;50.90
33105;DHT22;19476;51.448;6.674;2022-10-16T11:18:49;22.50;51.10
33105;DHT22;19476;51.448;6.674;2022-10-16T11:21:19;22.70;50.60
33105;DHT22;19476;51.448;6.674;2022-10-16T11:24:03;22.70;50.70
33105;DHT22;19476;51.448;6.674;2022-10-16T11:26:34;22.80;49.90
33105;DHT22;19476;51.448;6.674;2022-10-16T11:29:02;22.90;50.40
33105;DHT22;19476;51.448;6.674;2022-10-16T11:31:36;22.90;50.70
33105;DHT22;19476;51.448;6.674;2022-10-16T11:39:27;23.30;49.40
33105;DHT22;19476;51.448;6.674;2022-10-16T11:42:02;23.30;50.10
33105;DHT22;19476;51.448;6.674;2022-10-16T11:55:37;23.90;48.80
33105;DHT22;19476;51.448;6.674;2022-10-16T12:00:53;24.10;47.30
33105;DHT22;19476;51.448;6.674;2022-10-16T12:03:31;24.20;46.70
33105;DHT22;19476;51.448;6.674;2022-10-16T12:08:37;24.20;46.80
33105;DHT22;19476;51.448;6.674;2022-10-16T12:11:09;24.30;47.50
33105;DHT22;19476;51.448;6.674;2022-10-16T12:13:40;24.30;46.20
33105;DHT22;19476;51.448;6.674;2022-10-16T12:18:43;24.30;45.70
33105;DHT22;19476;51.448;6.674;2022-10-16T12:21:10;24.30;45.40
33105;DHT22;19476;51.448;6.674;2022-10-16T12:23:56;24.30;46.00
33105;DHT22;19476;51.448;6.674;2022-10-16T12:26:27;24.30;45.60
33105;DHT22;19476;51.448;6.674;2022-10-16T12:28:54;24.40;45.80
33105;DHT22;19476;51.448;6.674;2022-10-16T12:31:21;24.50;46.00
33105;DHT22;19476;51.448;6.674;2022-10-16T12:34:01;24.50;45.70
33105;DHT22;19476;51.448;6.674;2022-10-16T12:36:33;24.50;45.20
33105;DHT22;19476;51.448;6.674;2022-10-16T12:39:00;24.50;45.60
33105;DHT22;19476;51.448;6.674;2022-10-16T12:41:30;24.50;45.80
33105;DHT22;19476;51.448;6.674;2022-10-16T12:43:57;24.50;45.80
33105;DHT22;19476;51.448;6.674;2022-10-16T12:51:56;24.50;46.00
33105;DHT22;19476;51.448;6.674;2022-10-16T12:54:35;24.60;45.80
33105;DHT22;19476;51.448;6.674;2022-10-16T13:00:01;24.70;45.00
33105;DHT22;19476;51.448;6.674;2022-10-16T13:03:00;24.80;45.20
33105;DHT22;19476;51.448;6.674;2022-10-16T13:05:47;24.90;44.70
33105;DHT22;19476;51.448;6.674;2022-10-16T13:11:12;25.10;44.50
33105;DHT22;19476;51.448;6.674;2022-10-16T13:16:50;25.50;44.10
33105;DHT22;19476;51.448;6.674;2022-10-16T13:22:38;26.00;43.70
33105;DHT22;19476;51.448;6.674;2022-10-16T13:28:03;26.40;42.60
33105;DHT22;19476;51.448;6.674;2022-10-16T13:30:37;26.60;41.70
33105;DHT22;19476;51.448;6.674;2022-10-16T13:33:21;26.70;41.80
33105;DHT22;19476;51.448;6.674;2022-10-16T13:35:54;26.70;41.10
33105;DHT22;19476;51.448;6.674;2022-10-16T13:38:28;26.60;41.20
33105;DHT22;19476;51.448;6.674;2022-10-16T13:40:58;26.50;41.50
33105;DHT22;19476;51.448;6.674;2022-10-16T13:46:05;26.30;41.80
33105;DHT22;19476;51.448;6.674;2022-10-16T13:48:33;26.20;41.20
33105;DHT22;19476;51.448;6.674;2022-10-16T13:51:17;26.00;42.00
33105;DHT22;19476;51.448;6.674;2022-10-16T13:53:44;25.90;41.80
33105;DHT22;19476;51.448;6.674;2022-10-16T13:56:14;25.80;42.50
33105;DHT22;19476;51.448;6.674;2022-10-16T13:58:41;25.70;42.30
33105;DHT22;19476;51.448;6.674;2022-10-16T14:01:23;25.60;42.70
33105;DHT22;19476;51.448;6.674;2022-10-16T14:03:51;25.60;42.50
33105;DHT22;19476;51.448;6.674;2022-10-16T14:06:20;25.60;43.20
33105;DHT22;19476;51.448;6.674;2022-10-16T14:11:51;25.50;42.80
33105;DHT22;19476;51.448;6.674;2022-10-16T14:14:21;25.50;42.80
33105;DHT22;19476;51.448;6.674;2022-10-16T14:16:48;25.40;43.00
33105;DHT22;19476;51.448;6.674;2022-10-16T14:19:27;25.30;43.20
33105;DHT22;19476;51.448;6.674;2022-10-16T14:21:56;25.20;43.00
33105;DHT22;19476;51.448;6.674;2022-10-16T14:26:53;25.10;44.00
33105;DHT22;19476;51.448;6.674;2022-10-16T14:29:22;25.00;43.90
33105;DHT22;19476;51.448;6.674;2022-10-16T14:32:00;24.90;44.00
33105;DHT22;19476;51.448;6.674;2022-10-16T14:34:31;24.80;43.80
33105;DHT22;19476;51.448;6.674;2022-10-16T14:37:01;24.80;44.30
33105;DHT22;19476;51.448;6.674;2022-10-16T14:39:32;24.70;44.40
33105;DHT22;19476;51.448;6.674;2022-10-16T14:41:58;24.70;44.50
33105;DHT22;19476;51.448;6.674;2022-10-16T14:44:33;24.70;44.70
33105;DHT22;19476;51.448;6.674;2022-10-16T14:47:08;24.60;44.10
33105;DHT22;19476;51.448;6.674;2022-10-16T14:49:35;24.60;44.40
33105;DHT22;19476;51.448;6.674;2022-10-16T14:52:01;24.40;44.70
33105;DHT22;19476;51.448;6.674;2022-10-16T14:54:27;24.50;44.80
33105;DHT22;19476;51.448;6.674;2022-10-16T14:56:57;24.40;45.00
33105;DHT22;19476;51.448;6.674;2022-10-16T14:59:36;24.40;45.60
33105;DHT22;19476;51.448;6.674;2022-10-16T15:02:23;24.40;45.50
33105;DHT22;19476;51.448;6.674;2022-10-16T15:04:50;24.40;45.10
33105;DHT22;19476;51.448;6.674;2022-10-16T15:07:16;24.40;45.80
33105;DHT22;19476;51.448;6.674;2022-10-16T15:09:42;24.30;45.80
33105;DHT22;19476;51.448;6.674;2022-10-16T15:12:08;24.30;45.90
33105;DHT22;19476;51.448;6.674;2022-10-16T15:14:34;24.20;45.90
33105;DHT22;19476;51.448;6.674;2022-10-16T15:16:59;24.20;46.00
33105;DHT22;19476;51.448;6.674;2022-10-16T15:19:25;24.20;46.10
33105;DHT22;19476;51.448;6.674;2022-10-16T15:21:51;24.10;46.30
33105;DHT22;19476;51.448;6.674;2022-10-16T15:24:18;24.10;46.40
33105;DHT22;19476;51.448;6.674;2022-10-16T15:26:44;24.10;46.40
33105;DHT22;19476;51.448;6.674;2022-10-16T15:29:12;24.00;46.30
33105;DHT22;19476;51.448;6.674;2022-10-16T15:31:38;24.10;46.30
33105;DHT22;19476;51.448;6.674;2022-10-16T15:34:04;24.00;46.50
33105;DHT22;19476;51.448;6.674;2022-10-16T15:36:36;24.00;46.70
33105;DHT22;19476;51.448;6.674;2022-10-16T15:39:23;24.00;46.50
33105;DHT22;19476;51.448;6.674;2022-10-16T15:41:49;23.90;46.20
33105;DHT22;19476;51.448;6.674;2022-10-16T15:44:19;23.90;46.90
33105;DHT22;19476;51.448;6.674;2022-10-16T15:46:47;23.90;47.10
33105;DHT22;19476;51.448;6.674;2022-10-16T15:49:13;23.90;47.30
33105;DHT22;19476;51.448;6.674;2022-10-16T15:51:39;23.90;47.30
33105;DHT22;19476;51.448;6.674;2022-10-16T15:54:06;23.90;47.70
33105;DHT22;19476;51.448;6.674;2022-10-16T15:56:32;23.80;47.80
33105;DHT22;19476;51.448;6.674;2022-10-16T15:58:59;23.80;47.80
33105;DHT22;19476;51.448;6.674;2022-10-16T16:01:26;23.80;48.00
33105;DHT22;19476;51.448;6.674;2022-10-16T16:03:55;23.80;48.20
33105;DHT22;19476;51.448;6.674;2022-10-16T16:06:22;23.70;48.20
33105;DHT22;19476;51.448;6.674;2022-10-16T16:08:50;23.70;48.20
33105;DHT22;19476;51.448;6.674;2022-10-16T16:11:16;23.70;48.30
33105;DHT22;19476;51.448;6.674;2022-10-16T16:13:42;23.70;48.30
33105;DHT22;19476;51.448;6.674;2022-10-16T16:16:11;23.60;48.50
33105;DHT22;19476;51.448;6.674;2022-10-16T16:18:37;23.60;48.60
33105;DHT22;19476;51.448;6.674;2022-10-16T16:21:04;23.50;48.60
33105;DHT22;19476;51.448;6.674;2022-10-16T16:23:31;23.50;48.70
33105;DHT22;19476;51.448;6.674;2022-10-16T16:28:35;23.50;48.80
33105;DHT22;19476;51.448;6.674;2022-10-16T16:31:01;23.40;49.00
33105;DHT22;19476;51.448;6.674;2022-10-16T16:33:27;23.40;49.20
33105;DHT22;19476;51.448;6.674;2022-10-16T16:36:01;23.30;49.20
33105;DHT22;19476;51.448;6.674;2022-10-16T16:38:27;23.30;49.40
33105;DHT22;19476;51.448;6.674;2022-10-16T16:40:54;23.30;49.20
33105;DHT22;19476;51.448;6.674;2022-10-16T16:43:26;23.30;49.30
33105;DHT22;19476;51.448;6.674;2022-10-16T16:45:53;23.20;49.60
33105;DHT22;19476;51.448;6.674;2022-10-16T16:48:19;23.20;49.60
33105;DHT22;19476;51.448;6.674;2022-10-16T16:50:45;23.10;49.70
33105;DHT22;19476;51.448;6.674;2022-10-16T16:53:11;23.10;49.80
33105;DHT22;19476;51.448;6.674;2022-10-16T16:55:37;23.10;49.90
33105;DHT22;19476;51.448;6.674;2022-10-16T16:58:03;23.00;50.00
33105;DHT22;19476;51.448;6.674;2022-10-16T17:00:30;23.00;50.00
33105;DHT22;19476;51.448;6.674;2022-10-16T17:02:57;22.90;49.90
33105;DHT22;19476;51.448;6.674;2022-10-16T17:05:23;22.90;49.90
33105;DHT22;19476;51.448;6.674;2022-10-16T17:07:48;22.90;49.90
33105;DHT22;19476;51.448;6.674;2022-10-16T17:10:15;22.80;49.80
33105;DHT22;19476;51.448;6.674;2022-10-16T17:12:40;22.80;49.90
33105;DHT22;19476;51.448;6.674;2022-10-16T17:15:07;22.70;50.20
33105;DHT22;19476;51.448;6.674;2022-10-16T17:17:32;22.70;50.20
33105;DHT22;19476;51.448;6.674;2022-10-16T17:19:58;22.70;50.00
33105;DHT22;19476;51.448;6.674;2022-10-16T17:22:24;22.60;49.60
33105;DHT22;19476;51.448;6.674;2022-10-16T17:24:50;22.60;49.60
33105;DHT22;19476;51.448;6.674;2022-10-16T17:27:17;22.60;49.40
33105;DHT22;19476;51.448;6.674;2022-10-16T17:29:43;22.50;49.40
33105;DHT22;19476;51.448;6.674;2022-10-16T17:32:09;22.40;49.30
33105;DHT22;19476;51.448;6.674;2022-10-16T17:34:36;22.40;49.40
33105;DHT22;19476;51.448;6.674;2022-10-16T17:37:02;22.40;49.30
33105;DHT22;19476;51.448;6.674;2022-10-16T17:39:28;22.40;49.40
33105;DHT22;19476;51.448;6.674;2022-10-16T17:41:54;22.30;49.30
33105;DHT22;19476;51.448;6.674;2022-10-16T17:44:20;22.30;49.20
33105;DHT22;19476;51.448;6.674;2022-10-16T17:46:51;22.30;49.30
33105;DHT22;19476;51.448;6.674;2022-10-16T17:49:17;22.30;49.40
33105;DHT22;19476;51.448;6.674;2022-10-16T17:51:43;22.30;49.30
33105;DHT22;19476;51.448;6.674;2022-10-16T17:54:09;22.30;49.30